sensor_id;sensor_type;location;lat;lon;timestamp;P1;durP1;ratioP1;P2;durP2;ratioP2
21299;SDS011;10809;49.476;11.016;2022-08-14T00:02:27;10.85;;;4.32;;
21299;SDS011;10809;49.476;11.016;2022-08-14T00:04:57;5.47;;;3.78;;
21299;SDS011;10809;49.476;11.016;2022-08-14T00:07:28;7.95;;;4.88;;
21299;SDS011;10809;49.476;11.016;2022-08-14T00:09:58;5.93;;;3.92;;
21299;SDS011;10809;49.476;11.016;2022-08-14T00:12:29;4.55;;;4.15;;
21299;SDS011;10809;49.476;11.016;2022-08-14T00:15:01;4.10;;;3.80;;
21299;SDS011;10809;49.476;11.016;2022-08-14T00:17:34;4.40;;;4.00;;
21299;SDS011;10809;49.476;11.016;2022-08-14T00:20:05;4.68;;;3.90;;
21299;SDS011;10809;49.476;11.016;2022-08-14T00:22:37;7.95;;;4.30;;
21299;SDS011;10809;49.476;11.016;2022-08-14T00:25:08;6.43;;;4.22;;
21299;SDS011;10809;49.476;11.016;2022-08-14T00:27:39;8.25;;;4.53;;
21299;SDS011;10809;49.476;11.016;2022-08-14T00:30:10;5.32;;;4.28;;
21299;SDS011;10809;49.476;11.016;2022-08-14T00:32:42;4.10;;;3.72;;
21299;SDS011;10809;49.476;11.016;2022-08-14T00:35:13;4.75;;;3.78;;
21299;SDS011;10809;49.476;11.016;2022-08-14T00:37:44;4.07;;;3.78;;
21299;SDS011;10809;49.476;11.016;2022-08-14T00:40:16;4.50;;;4.10;;
21299;SDS011;10809;49.476;11.016;2022-08-14T00:42:48;5.60;;;4.35;;
21299;SDS011;10809;49.476;11.016;2022-08-14T00:45:19;5.97;;;4.40;;
21299;SDS011;10809;49.476;11.016;2022-08-14T00:47:52;5.00;;;4.35;;
21299;SDS011;10809;49.476;11.016;2022-08-14T00:50:23;7.22;;;4.50;;
21299;SDS011;10809;49.476;11.016;2022-08-14T00:52:53;3.88;;;3.58;;
21299;SDS011;10809;49.476;11.016;2022-08-14T00:55:25;5.13;;;4.07;;
21299;SDS011;10809;49.476;11.016;2022-08-14T00:58:00;5.57;;;4.28;;
21299;SDS011;10809;49.476;11.016;2022-08-14T01:00:49;5.05;;;4.05;;
21299;SDS011;10809;49.476;11.016;2022-08-14T01:03:20;5.85;;;4.30;;
21299;SDS011;10809;49.476;11.016;2022-08-14T01:05:51;7.13;;;4.30;;
21299;SDS011;10809;49.476;11.016;2022-08-14T01:08:23;7.00;;;5.07;;
21299;SDS011;10809;49.476;11.016;2022-08-14T01:10:56;4.95;;;4.45;;
21299;SDS011;10809;49.476;11.016;2022-08-14T01:13:31;5.90;;;4.38;;
21299;SDS011;10809;49.476;11.016;2022-08-14T01:16:06;4.30;;;4.00;;
21299;SDS011;10809;49.476;11.016;2022-08-14T01:18:39;9.30;;;4.30;;
21299;SDS011;10809;49.476;11.016;2022-08-14T01:21:32;5.93;;;4.22;;
21299;SDS011;10809;49.476;11.016;2022-08-14T01:24:11;4.43;;;4.07;;
21299;SDS011;10809;49.476;11.016;2022-08-14T01:26:44;6.18;;;4.45;;
21299;SDS011;10809;49.476;11.016;2022-08-14T01:29:16;6.97;;;4.53;;
21299;SDS011;10809;49.476;11.016;2022-08-14T01:31:48;4.65;;;3.90;;
21299;SDS011;10809;49.476;11.016;2022-08-14T01:34:21;4.65;;;4.28;;
21299;SDS011;10809;49.476;11.016;2022-08-14T01:36:55;4.38;;;4.07;;
21299;SDS011;10809;49.476;11.016;2022-08-14T01:39:25;5.82;;;4.53;;
21299;SDS011;10809;49.476;11.016;2022-08-14T01:41:56;4.43;;;4.03;;
21299;SDS011;10809;49.476;11.016;2022-08-14T01:44:29;4.70;;;4.30;;
21299;SDS011;10809;49.476;11.016;2022-08-14T01:47:02;5.60;;;5.05;;
21299;SDS011;10809;49.476;11.016;2022-08-14T01:49:42;6.43;;;4.75;;
21299;SDS011;10809;49.476;11.016;2022-08-14T01:52:14;5.28;;;4.85;;
21299;SDS011;10809;49.476;11.016;2022-08-14T01:54:45;6.22;;;4.47;;
21299;SDS011;10809;49.476;11.016;2022-08-14T01:57:16;4.97;;;4.57;;
21299;SDS011;10809;49.476;11.016;2022-08-14T01:59:47;5.63;;;5.13;;
21299;SDS011;10809;49.476;11.016;2022-08-14T02:02:19;6.15;;;5.32;;
21299;SDS011;10809;49.476;11.016;2022-08-14T02:04:49;5.07;;;4.68;;
21299;SDS011;10809;49.476;11.016;2022-08-14T02:07:20;5.38;;;4.88;;
21299;SDS011;10809;49.476;11.016;2022-08-14T02:09:51;5.68;;;4.68;;
21299;SDS011;10809;49.476;11.016;2022-08-14T02:12:21;8.20;;;5.15;;
21299;SDS011;10809;49.476;11.016;2022-08-14T02:14:53;6.07;;;5.45;;
21299;SDS011;10809;49.476;11.016;2022-08-14T02:17:24;5.97;;;5.38;;
21299;SDS011;10809;49.476;11.016;2022-08-14T02:19:54;6.00;;;5.50;;
21299;SDS011;10809;49.476;11.016;2022-08-14T02:22:25;6.47;;;5.88;;
21299;SDS011;10809;49.476;11.016;2022-08-14T02:24:55;5.70;;;5.20;;
21299;SDS011;10809;49.476;11.016;2022-08-14T02:27:26;5.80;;;5.30;;
21299;SDS011;10809;49.476;11.016;2022-08-14T02:29:58;5.05;;;4.63;;
21299;SDS011;10809;49.476;11.016;2022-08-14T02:32:31;5.43;;;4.93;;
21299;SDS011;10809;49.476;11.016;2022-08-14T02:35:05;6.13;;;5.10;;
21299;SDS011;10809;49.476;11.016;2022-08-14T02:37:45;6.45;;;5.07;;
21299;SDS011;10809;49.476;11.016;2022-08-14T02:40:17;5.60;;;5.10;;
21299;SDS011;10809;49.476;11.016;2022-08-14T02:42:48;5.10;;;4.70;;
21299;SDS011;10809;49.476;11.016;2022-08-14T02:45:18;5.32;;;4.93;;
21299;SDS011;10809;49.476;11.016;2022-08-14T02:47:49;6.45;;;5.70;;
21299;SDS011;10809;49.476;11.016;2022-08-14T02:50:19;5.85;;;5.35;;
21299;SDS011;10809;49.476;11.016;2022-08-14T02:52:50;5.10;;;4.70;;
21299;SDS011;10809;49.476;11.016;2022-08-14T02:55:23;5.35;;;4.95;;
21299;SDS011;10809;49.476;11.016;2022-08-14T02:57:53;7.65;;;4.95;;
21299;SDS011;10809;49.476;11.016;2022-08-14T03:00:24;8.32;;;5.82;;
21299;SDS011;10809;49.476;11.016;2022-08-14T03:02:55;5.70;;;5.22;;
21299;SDS011;10809;49.476;11.016;2022-08-14T03:05:26;5.88;;;5.38;;
21299;SDS011;10809;49.476;11.016;2022-08-14T03:08:17;4.95;;;4.55;;
21299;SDS011;10809;49.476;11.016;2022-08-14T03:10:53;5.32;;;4.93;;
21299;SDS011;10809;49.476;11.016;2022-08-14T03:13:25;5.10;;;4.68;;
21299;SDS011;10809;49.476;11.016;2022-08-14T03:15:56;6.03;;;5.53;;
21299;SDS011;10809;49.476;11.016;2022-08-14T03:18:26;5.80;;;5.30;;
21299;SDS011;10809;49.476;11.016;2022-08-14T03:21:04;5.90;;;5.40;;
21299;SDS011;10809;49.476;11.016;2022-08-14T03:23:36;6.15;;;5.53;;
21299;SDS011;10809;49.476;11.016;2022-08-14T03:26:08;5.45;;;4.97;;
21299;SDS011;10809;49.476;11.016;2022-08-14T03:28:41;6.07;;;5.47;;
21299;SDS011;10809;49.476;11.016;2022-08-14T03:31:17;7.03;;;5.43;;
21299;SDS011;10809;49.476;11.016;2022-08-14T03:33:51;6.03;;;5.47;;
21299;SDS011;10809;49.476;11.016;2022-08-14T03:36:22;5.70;;;4.95;;
21299;SDS011;10809;49.476;11.016;2022-08-14T03:38:52;5.72;;;5.22;;
21299;SDS011;10809;49.476;11.016;2022-08-14T03:41:25;6.25;;;5.53;;
21299;SDS011;10809;49.476;11.016;2022-08-14T03:43:58;5.95;;;5.35;;
21299;SDS011;10809;49.476;11.016;2022-08-14T03:46:31;5.88;;;5.38;;
21299;SDS011;10809;49.476;11.016;2022-08-14T03:49:03;5.97;;;5.43;;
21299;SDS011;10809;49.476;11.016;2022-08-14T03:51:35;7.28;;;5.53;;
21299;SDS011;10809;49.476;11.016;2022-08-14T03:54:06;5.70;;;5.18;;
21299;SDS011;10809;49.476;11.016;2022-08-14T03:56:37;5.53;;;5.03;;
21299;SDS011;10809;49.476;11.016;2022-08-14T03:59:09;6.22;;;5.72;;
21299;SDS011;10809;49.476;11.016;2022-08-14T04:01:42;6.55;;;5.95;;
21299;SDS011;10809;49.476;11.016;2022-08-14T04:04:15;6.53;;;6.00;;
21299;SDS011;10809;49.476;11.016;2022-08-14T04:06:48;6.32;;;5.72;;
21299;SDS011;10809;49.476;11.016;2022-08-14T04:09:20;6.50;;;5.85;;
21299;SDS011;10809;49.476;11.016;2022-08-14T04:11:50;6.35;;;5.60;;
21299;SDS011;10809;49.476;11.016;2022-08-14T04:14:24;5.05;;;4.55;;
21299;SDS011;10809;49.476;11.016;2022-08-14T04:16:54;6.32;;;5.72;;
21299;SDS011;10809;49.476;11.016;2022-08-14T04:19:27;6.70;;;5.15;;
21299;SDS011;10809;49.476;11.016;2022-08-14T04:21:58;6.88;;;5.47;;
21299;SDS011;10809;49.476;11.016;2022-08-14T04:24:28;5.78;;;5.20;;
21299;SDS011;10809;49.476;11.016;2022-08-14T04:26:59;11.52;;;5.97;;
21299;SDS011;10809;49.476;11.016;2022-08-14T04:29:30;6.95;;;6.20;;
21299;SDS011;10809;49.476;11.016;2022-08-14T04:32:00;7.57;;;6.28;;
21299;SDS011;10809;49.476;11.016;2022-08-14T04:34:37;5.65;;;5.15;;
21299;SDS011;10809;49.476;11.016;2022-08-14T04:37:09;6.18;;;5.57;;
21299;SDS011;10809;49.476;11.016;2022-08-14T04:39:58;6.40;;;5.80;;
21299;SDS011;10809;49.476;11.016;2022-08-14T04:42:50;6.72;;;6.03;;
21299;SDS011;10809;49.476;11.016;2022-08-14T04:45:42;7.30;;;5.22;;
21299;SDS011;10809;49.476;11.016;2022-08-14T04:48:14;6.40;;;5.80;;
21299;SDS011;10809;49.476;11.016;2022-08-14T04:50:46;5.85;;;5.35;;
21299;SDS011;10809;49.476;11.016;2022-08-14T04:53:20;5.68;;;5.18;;
21299;SDS011;10809;49.476;11.016;2022-08-14T04:55:53;6.30;;;5.68;;
21299;SDS011;10809;49.476;11.016;2022-08-14T04:58:26;6.18;;;5.60;;
21299;SDS011;10809;49.476;11.016;2022-08-14T05:00:58;5.95;;;5.45;;
21299;SDS011;10809;49.476;11.016;2022-08-14T05:03:30;6.05;;;5.13;;
21299;SDS011;10809;49.476;11.016;2022-08-14T05:06:06;6.53;;;5.53;;
21299;SDS011;10809;49.476;11.016;2022-08-14T05:08:37;7.38;;;5.82;;
21299;SDS011;10809;49.476;11.016;2022-08-14T05:11:08;6.13;;;5.63;;
21299;SDS011;10809;49.476;11.016;2022-08-14T05:13:39;6.55;;;5.90;;
21299;SDS011;10809;49.476;11.016;2022-08-14T05:16:10;7.10;;;6.40;;
21299;SDS011;10809;49.476;11.016;2022-08-14T05:18:42;6.82;;;6.22;;
21299;SDS011;10809;49.476;11.016;2022-08-14T05:21:15;9.40;;;6.40;;
21299;SDS011;10809;49.476;11.016;2022-08-14T05:23:46;6.68;;;6.07;;
21299;SDS011;10809;49.476;11.016;2022-08-14T05:26:19;6.70;;;6.10;;
21299;SDS011;10809;49.476;11.016;2022-08-14T05:28:50;6.50;;;5.90;;
21299;SDS011;10809;49.476;11.016;2022-08-14T05:31:20;6.75;;;5.65;;
21299;SDS011;10809;49.476;11.016;2022-08-14T05:33:51;5.70;;;5.20;;
21299;SDS011;10809;49.476;11.016;2022-08-14T05:36:23;5.45;;;4.95;;
21299;SDS011;10809;49.476;11.016;2022-08-14T05:38:54;5.60;;;5.10;;
21299;SDS011;10809;49.476;11.016;2022-08-14T05:41:25;6.10;;;5.50;;
21299;SDS011;10809;49.476;11.016;2022-08-14T05:43:55;6.25;;;5.65;;
21299;SDS011;10809;49.476;11.016;2022-08-14T05:46:35;6.53;;;5.90;;
21299;SDS011;10809;49.476;11.016;2022-08-14T05:49:06;6.88;;;5.20;;
21299;SDS011;10809;49.476;11.016;2022-08-14T05:51:37;5.57;;;5.07;;
21299;SDS011;10809;49.476;11.016;2022-08-14T05:54:08;5.65;;;5.15;;
21299;SDS011;10809;49.476;11.016;2022-08-14T05:56:39;5.40;;;4.90;;
21299;SDS011;10809;49.476;11.016;2022-08-14T05:59:09;5.03;;;4.57;;
21299;SDS011;10809;49.476;11.016;2022-08-14T06:01:40;5.70;;;5.15;;
21299;SDS011;10809;49.476;11.016;2022-08-14T06:04:13;6.20;;;5.60;;
21299;SDS011;10809;49.476;11.016;2022-08-14T06:06:44;5.50;;;4.97;;
21299;SDS011;10809;49.476;11.016;2022-08-14T06:09:15;5.30;;;4.80;;
21299;SDS011;10809;49.476;11.016;2022-08-14T06:11:56;5.90;;;5.40;;
21299;SDS011;10809;49.476;11.016;2022-08-14T06:14:27;5.00;;;4.47;;
21299;SDS011;10809;49.476;11.016;2022-08-14T06:17:01;5.68;;;5.05;;
21299;SDS011;10809;49.476;11.016;2022-08-14T06:19:32;5.63;;;4.65;;
21299;SDS011;10809;49.476;11.016;2022-08-14T06:22:02;4.90;;;4.50;;
21299;SDS011;10809;49.476;11.016;2022-08-14T06:24:33;4.65;;;4.25;;
21299;SDS011;10809;49.476;11.016;2022-08-14T06:27:06;5.28;;;4.88;;
21299;SDS011;10809;49.476;11.016;2022-08-14T06:29:37;4.57;;;4.18;;
21299;SDS011;10809;49.476;11.016;2022-08-14T06:32:08;5.43;;;4.93;;
21299;SDS011;10809;49.476;11.016;2022-08-14T06:34:40;4.93;;;4.45;;
21299;SDS011;10809;49.476;11.016;2022-08-14T06:37:11;4.32;;;3.95;;
21299;SDS011;10809;49.476;11.016;2022-08-14T06:39:41;6.32;;;4.88;;
21299;SDS011;10809;49.476;11.016;2022-08-14T06:42:11;5.22;;;4.40;;
21299;SDS011;10809;49.476;11.016;2022-08-14T06:44:42;4.78;;;4.40;;
21299;SDS011;10809;49.476;11.016;2022-08-14T06:47:12;4.22;;;3.92;;
21299;SDS011;10809;49.476;11.016;2022-08-14T06:49:44;4.90;;;4.50;;
21299;SDS011;10809;49.476;11.016;2022-08-14T06:52:14;4.32;;;4.03;;
21299;SDS011;10809;49.476;11.016;2022-08-14T06:54:44;4.82;;;4.40;;
21299;SDS011;10809;49.476;11.016;2022-08-14T06:57:15;4.60;;;4.25;;
21299;SDS011;10809;49.476;11.016;2022-08-14T06:59:48;4.97;;;4.15;;
21299;SDS011;10809;49.476;11.016;2022-08-14T07:02:21;4.63;;;4.22;;
21299;SDS011;10809;49.476;11.016;2022-08-14T07:05:11;4.88;;;4.47;;
21299;SDS011;10809;49.476;11.016;2022-08-14T07:08:03;4.00;;;3.70;;
21299;SDS011;10809;49.476;11.016;2022-08-14T07:10:34;4.68;;;4.30;;
21299;SDS011;10809;49.476;11.016;2022-08-14T07:16:06;3.50;;;3.22;;
21299;SDS011;10809;49.476;11.016;2022-08-14T07:18:40;4.13;;;3.72;;
21299;SDS011;10809;49.476;11.016;2022-08-14T07:21:10;6.03;;;3.40;;
21299;SDS011;10809;49.476;11.016;2022-08-14T07:23:41;4.72;;;3.67;;
21299;SDS011;10809;49.476;11.016;2022-08-14T07:26:11;4.18;;;3.78;;
21299;SDS011;10809;49.476;11.016;2022-08-14T07:28:42;4.13;;;3.78;;
21299;SDS011;10809;49.476;11.016;2022-08-14T07:31:12;4.53;;;4.13;;
21299;SDS011;10809;49.476;11.016;2022-08-14T07:33:44;4.10;;;3.60;;
21299;SDS011;10809;49.476;11.016;2022-08-14T07:36:16;4.13;;;3.83;;
21299;SDS011;10809;49.476;11.016;2022-08-14T07:38:48;4.47;;;4.07;;
21299;SDS011;10809;49.476;11.016;2022-08-14T07:41:19;3.88;;;3.58;;
21299;SDS011;10809;49.476;11.016;2022-08-14T07:43:50;3.78;;;3.50;;
21299;SDS011;10809;49.476;11.016;2022-08-14T07:46:20;4.28;;;3.90;;
21299;SDS011;10809;49.476;11.016;2022-08-14T07:48:57;4.32;;;3.80;;
21299;SDS011;10809;49.476;11.016;2022-08-14T07:51:28;4.18;;;3.78;;
21299;SDS011;10809;49.476;11.016;2022-08-14T07:53:59;3.50;;;3.20;;
21299;SDS011;10809;49.476;11.016;2022-08-14T07:56:29;3.67;;;3.38;;
21299;SDS011;10809;49.476;11.016;2022-08-14T07:58:59;3.70;;;3.38;;
21299;SDS011;10809;49.476;11.016;2022-08-14T08:01:33;3.47;;;3.20;;
21299;SDS011;10809;49.476;11.016;2022-08-14T08:04:03;3.85;;;2.95;;
21299;SDS011;10809;49.476;11.016;2022-08-14T08:06:35;4.05;;;3.10;;
21299;SDS011;10809;49.476;11.016;2022-08-14T08:09:07;2.97;;;2.78;;
21299;SDS011;10809;49.476;11.016;2022-08-14T08:11:39;4.25;;;3.60;;
21299;SDS011;10809;49.476;11.016;2022-08-14T08:14:11;3.22;;;2.92;;
21299;SDS011;10809;49.476;11.016;2022-08-14T08:16:41;3.28;;;2.80;;
21299;SDS011;10809;49.476;11.016;2022-08-14T08:19:12;2.72;;;2.53;;
21299;SDS011;10809;49.476;11.016;2022-08-14T08:21:47;2.80;;;2.60;;
21299;SDS011;10809;49.476;11.016;2022-08-14T08:24:18;3.15;;;2.95;;
21299;SDS011;10809;49.476;11.016;2022-08-14T08:26:51;2.90;;;2.70;;
21299;SDS011;10809;49.476;11.016;2022-08-14T08:29:22;3.20;;;2.90;;
21299;SDS011;10809;49.476;11.016;2022-08-14T08:31:53;3.30;;;3.10;;
21299;SDS011;10809;49.476;11.016;2022-08-14T08:34:24;2.75;;;2.55;;
21299;SDS011;10809;49.476;11.016;2022-08-14T08:36:54;2.75;;;2.55;;
21299;SDS011;10809;49.476;11.016;2022-08-14T08:39:27;3.10;;;2.90;;
21299;SDS011;10809;49.476;11.016;2022-08-14T08:41:57;3.40;;;3.10;;
21299;SDS011;10809;49.476;11.016;2022-08-14T08:44:28;2.58;;;2.40;;
21299;SDS011;10809;49.476;11.016;2022-08-14T08:47:00;3.55;;;2.70;;
21299;SDS011;10809;49.476;11.016;2022-08-14T08:49:35;3.00;;;2.80;;
21299;SDS011;10809;49.476;11.016;2022-08-14T08:52:11;2.70;;;2.50;;
21299;SDS011;10809;49.476;11.016;2022-08-14T08:54:41;3.00;;;2.70;;
21299;SDS011;10809;49.476;11.016;2022-08-14T08:57:22;2.67;;;2.47;;
21299;SDS011;10809;49.476;11.016;2022-08-14T08:59:52;2.25;;;2.15;;
21299;SDS011;10809;49.476;11.016;2022-08-14T09:04:00;2.60;;;2.40;;
21299;SDS011;10809;49.476;11.016;2022-08-14T09:06:42;3.85;;;2.08;;
21299;SDS011;10809;49.476;11.016;2022-08-14T09:09:20;2.75;;;2.20;;
21299;SDS011;10809;49.476;11.016;2022-08-14T09:11:59;2.80;;;2.60;;
21299;SDS011;10809;49.476;11.016;2022-08-14T09:14:32;2.28;;;2.17;;
21299;SDS011;10809;49.476;11.016;2022-08-14T09:17:07;3.03;;;2.35;;
21299;SDS011;10809;49.476;11.016;2022-08-14T09:19:37;2.38;;;2.17;;
21299;SDS011;10809;49.476;11.016;2022-08-14T09:22:08;2.35;;;2.20;;
21299;SDS011;10809;49.476;11.016;2022-08-14T09:24:40;3.45;;;2.47;;
21299;SDS011;10809;49.476;11.016;2022-08-14T09:27:10;1.88;;;1.77;;
21299;SDS011;10809;49.476;11.016;2022-08-14T09:29:41;2.85;;;2.65;;
21299;SDS011;10809;49.476;11.016;2022-08-14T09:32:11;2.17;;;2.05;;
21299;SDS011;10809;49.476;11.016;2022-08-14T09:34:54;6.00;;;2.20;;
21299;SDS011;10809;49.476;11.016;2022-08-14T09:46:52;2.38;;;2.17;;
21299;SDS011;10809;49.476;11.016;2022-08-14T09:52:09;2.30;;;2.10;;
21299;SDS011;10809;49.476;11.016;2022-08-14T09:54:42;2.58;;;2.38;;
21299;SDS011;10809;49.476;11.016;2022-08-14T09:57:27;2.42;;;2.17;;
21299;SDS011;10809;49.476;11.016;2022-08-14T10:00:08;2.65;;;2.35;;
21299;SDS011;10809;49.476;11.016;2022-08-14T10:02:50;2.22;;;2.13;;
21299;SDS011;10809;49.476;11.016;2022-08-14T10:05:30;2.60;;;2.40;;
21299;SDS011;10809;49.476;11.016;2022-08-14T10:08:03;2.42;;;2.22;;
21299;SDS011;10809;49.476;11.016;2022-08-14T10:10:35;2.42;;;2.22;;
21299;SDS011;10809;49.476;11.016;2022-08-14T10:13:19;2.95;;;2.10;;
21299;SDS011;10809;49.476;11.016;2022-08-14T10:15:58;2.60;;;2.40;;
21299;SDS011;10809;49.476;11.016;2022-08-14T10:18:29;2.63;;;2.42;;
21299;SDS011;10809;49.476;11.016;2022-08-14T10:21:03;3.08;;;2.83;;
21299;SDS011;10809;49.476;11.016;2022-08-14T10:23:42;4.65;;;2.28;;
21299;SDS011;10809;49.476;11.016;2022-08-14T10:26:17;4.05;;;2.45;;
21299;SDS011;10809;49.476;11.016;2022-08-14T10:28:49;3.10;;;2.80;;
21299;SDS011;10809;49.476;11.016;2022-08-14T10:31:23;3.72;;;2.58;;
21299;SDS011;10809;49.476;11.016;2022-08-14T10:36:45;2.97;;;2.58;;
21299;SDS011;10809;49.476;11.016;2022-08-14T10:39:22;3.30;;;3.10;;
21299;SDS011;10809;49.476;11.016;2022-08-14T10:42:04;3.00;;;2.80;;
21299;SDS011;10809;49.476;11.016;2022-08-14T10:44:37;5.18;;;2.95;;
21299;SDS011;10809;49.476;11.016;2022-08-14T10:47:11;3.00;;;2.80;;
21299;SDS011;10809;49.476;11.016;2022-08-14T10:49:55;3.03;;;2.75;;
21299;SDS011;10809;49.476;11.016;2022-08-14T10:52:29;2.83;;;2.55;;
21299;SDS011;10809;49.476;11.016;2022-08-14T10:55:05;3.45;;;3.15;;
21299;SDS011;10809;49.476;11.016;2022-08-14T10:57:58;4.75;;;2.85;;
21299;SDS011;10809;49.476;11.016;2022-08-14T11:00:28;4.35;;;3.22;;
21299;SDS011;10809;49.476;11.016;2022-08-14T11:03:00;2.72;;;2.53;;
21299;SDS011;10809;49.476;11.016;2022-08-14T11:08:13;2.78;;;2.58;;
21299;SDS011;10809;49.476;11.016;2022-08-14T11:10:55;2.92;;;2.72;;
21299;SDS011;10809;49.476;11.016;2022-08-14T11:13:30;3.05;;;2.75;;
21299;SDS011;10809;49.476;11.016;2022-08-14T11:16:01;3.67;;;2.85;;
21299;SDS011;10809;49.476;11.016;2022-08-14T11:18:31;2.67;;;2.47;;
21299;SDS011;10809;49.476;11.016;2022-08-14T11:21:05;2.85;;;2.65;;
21299;SDS011;10809;49.476;11.016;2022-08-14T11:23:36;3.03;;;2.83;;
21299;SDS011;10809;49.476;11.016;2022-08-14T11:26:08;2.55;;;2.35;;
21299;SDS011;10809;49.476;11.016;2022-08-14T11:28:43;2.67;;;2.47;;
21299;SDS011;10809;49.476;11.016;2022-08-14T11:31:20;2.47;;;2.28;;
21299;SDS011;10809;49.476;11.016;2022-08-14T11:33:52;2.30;;;2.17;;
21299;SDS011;10809;49.476;11.016;2022-08-14T11:36:26;2.50;;;2.30;;
21299;SDS011;10809;49.476;11.016;2022-08-14T11:38:58;2.90;;;2.58;;
21299;SDS011;10809;49.476;11.016;2022-08-14T11:41:28;2.78;;;2.58;;
21299;SDS011;10809;49.476;11.016;2022-08-14T11:44:03;2.65;;;2.47;;
21299;SDS011;10809;49.476;11.016;2022-08-14T11:46:36;2.63;;;2.42;;
21299;SDS011;10809;49.476;11.016;2022-08-14T11:49:10;2.65;;;2.45;;
21299;SDS011;10809;49.476;11.016;2022-08-14T11:51:40;3.22;;;3.03;;
21299;SDS011;10809;49.476;11.016;2022-08-14T11:54:25;2.60;;;2.40;;
21299;SDS011;10809;49.476;11.016;2022-08-14T11:56:55;3.85;;;3.50;;
21299;SDS011;10809;49.476;11.016;2022-08-14T11:59:26;3.22;;;2.78;;
21299;SDS011;10809;49.476;11.016;2022-08-14T12:02:11;2.90;;;2.70;;
21299;SDS011;10809;49.476;11.016;2022-08-14T12:04:49;2.88;;;2.67;;
21299;SDS011;10809;49.476;11.016;2022-08-14T12:07:21;2.47;;;2.20;;
21299;SDS011;10809;49.476;11.016;2022-08-14T12:09:52;2.45;;;2.25;;
21299;SDS011;10809;49.476;11.016;2022-08-14T12:12:27;2.65;;;2.45;;
21299;SDS011;10809;49.476;11.016;2022-08-14T12:15:04;3.97;;;2.45;;
21299;SDS011;10809;49.476;11.016;2022-08-14T12:17:43;3.20;;;2.70;;
21299;SDS011;10809;49.476;11.016;2022-08-14T12:20:17;2.80;;;2.60;;
21299;SDS011;10809;49.476;11.016;2022-08-14T12:22:51;3.20;;;2.17;;
21299;SDS011;10809;49.476;11.016;2022-08-14T12:25:21;2.58;;;2.38;;
21299;SDS011;10809;49.476;11.016;2022-08-14T12:27:53;2.60;;;2.40;;
21299;SDS011;10809;49.476;11.016;2022-08-14T12:30:25;2.60;;;2.40;;
21299;SDS011;10809;49.476;11.016;2022-08-14T12:33:29;2.20;;;2.10;;
21299;SDS011;10809;49.476;11.016;2022-08-14T12:36:02;2.60;;;2.08;;
21299;SDS011;10809;49.476;11.016;2022-08-14T12:38:42;2.47;;;2.30;;
21299;SDS011;10809;49.476;11.016;2022-08-14T12:41:16;2.60;;;2.40;;
21299;SDS011;10809;49.476;11.016;2022-08-14T12:43:54;2.17;;;2.08;;
21299;SDS011;10809;49.476;11.016;2022-08-14T12:46:38;2.33;;;2.13;;
21299;SDS011;10809;49.476;11.016;2022-08-14T12:49:13;2.65;;;2.45;;
21299;SDS011;10809;49.476;11.016;2022-08-14T12:51:56;2.80;;;2.60;;
21299;SDS011;10809;49.476;11.016;2022-08-14T12:54:27;2.15;;;2.00;;
21299;SDS011;10809;49.476;11.016;2022-08-14T12:57:03;2.50;;;2.30;;
21299;SDS011;10809;49.476;11.016;2022-08-14T12:59:34;2.70;;;2.50;;
21299;SDS011;10809;49.476;11.016;2022-08-14T13:02:06;2.05;;;1.85;;
21299;SDS011;10809;49.476;11.016;2022-08-14T13:04:40;2.80;;;2.60;;
21299;SDS011;10809;49.476;11.016;2022-08-14T13:07:11;2.22;;;2.05;;
21299;SDS011;10809;49.476;11.016;2022-08-14T13:09:41;2.78;;;2.58;;
21299;SDS011;10809;49.476;11.016;2022-08-14T13:12:12;2.55;;;2.38;;
21299;SDS011;10809;49.476;11.016;2022-08-14T13:14:47;2.88;;;2.28;;
21299;SDS011;10809;49.476;11.016;2022-08-14T13:17:19;2.47;;;2.25;;
21299;SDS011;10809;49.476;11.016;2022-08-14T13:19:51;3.10;;;2.67;;
21299;SDS011;10809;49.476;11.016;2022-08-14T13:22:25;2.70;;;2.30;;
21299;SDS011;10809;49.476;11.016;2022-08-14T13:24:59;2.65;;;2.45;;
21299;SDS011;10809;49.476;11.016;2022-08-14T13:27:32;2.33;;;2.10;;
21299;SDS011;10809;49.476;11.016;2022-08-14T13:30:09;3.33;;;2.47;;
21299;SDS011;10809;49.476;11.016;2022-08-14T13:32:40;2.55;;;2.35;;
21299;SDS011;10809;49.476;11.016;2022-08-14T13:35:14;3.60;;;2.25;;
21299;SDS011;10809;49.476;11.016;2022-08-14T13:37:46;2.47;;;2.28;;
21299;SDS011;10809;49.476;11.016;2022-08-14T13:40:19;2.10;;;2.00;;
21299;SDS011;10809;49.476;11.016;2022-08-14T13:42:51;3.30;;;2.42;;
21299;SDS011;10809;49.476;11.016;2022-08-14T13:45:24;2.30;;;2.10;;
21299;SDS011;10809;49.476;11.016;2022-08-14T13:47:55;3.05;;;2.40;;
21299;SDS011;10809;49.476;11.016;2022-08-14T13:50:30;2.53;;;2.33;;
21299;SDS011;10809;49.476;11.016;2022-08-14T13:53:00;2.75;;;2.55;;
21299;SDS011;10809;49.476;11.016;2022-08-14T13:55:31;2.42;;;2.25;;
21299;SDS011;10809;49.476;11.016;2022-08-14T13:58:02;2.83;;;2.63;;
21299;SDS011;10809;49.476;11.016;2022-08-14T14:00:33;2.67;;;2.47;;
21299;SDS011;10809;49.476;11.016;2022-08-14T14:03:05;3.22;;;2.75;;
21299;SDS011;10809;49.476;11.016;2022-08-14T14:05:37;2.72;;;2.35;;
21299;SDS011;10809;49.476;11.016;2022-08-14T14:08:08;2.42;;;2.22;;
21299;SDS011;10809;49.476;11.016;2022-08-14T14:10:40;2.50;;;2.30;;
21299;SDS011;10809;49.476;11.016;2022-08-14T14:13:13;2.63;;;2.42;;
21299;SDS011;10809;49.476;11.016;2022-08-14T14:15:44;2.88;;;2.20;;
21299;SDS011;10809;49.476;11.016;2022-08-14T14:18:17;2.75;;;2.55;;
21299;SDS011;10809;49.476;11.016;2022-08-14T14:20:49;2.35;;;2.15;;
21299;SDS011;10809;49.476;11.016;2022-08-14T14:23:20;2.50;;;2.30;;
21299;SDS011;10809;49.476;11.016;2022-08-14T14:25:57;2.25;;;2.15;;
21299;SDS011;10809;49.476;11.016;2022-08-14T14:28:29;2.72;;;2.53;;
21299;SDS011;10809;49.476;11.016;2022-08-14T14:31:01;3.05;;;2.85;;
21299;SDS011;10809;49.476;11.016;2022-08-14T14:33:36;2.65;;;2.42;;
21299;SDS011;10809;49.476;11.016;2022-08-14T14:36:11;4.53;;;2.55;;
21299;SDS011;10809;49.476;11.016;2022-08-14T14:38:50;2.70;;;2.50;;
21299;SDS011;10809;49.476;11.016;2022-08-14T14:41:26;3.03;;;2.75;;
21299;SDS011;10809;49.476;11.016;2022-08-14T14:43:58;4.75;;;2.90;;
21299;SDS011;10809;49.476;11.016;2022-08-14T14:46:36;2.83;;;2.63;;
21299;SDS011;10809;49.476;11.016;2022-08-14T14:49:08;3.10;;;2.90;;
21299;SDS011;10809;49.476;11.016;2022-08-14T14:51:43;2.83;;;2.47;;
21299;SDS011;10809;49.476;11.016;2022-08-14T14:54:15;2.83;;;2.63;;
21299;SDS011;10809;49.476;11.016;2022-08-14T14:56:49;2.80;;;2.60;;
21299;SDS011;10809;49.476;11.016;2022-08-14T14:59:21;3.67;;;2.80;;
21299;SDS011;10809;49.476;11.016;2022-08-14T15:01:53;2.75;;;2.55;;
21299;SDS011;10809;49.476;11.016;2022-08-14T15:04:35;3.63;;;3.03;;
21299;SDS011;10809;49.476;11.016;2022-08-14T15:07:06;3.00;;;2.65;;
21299;SDS011;10809;49.476;11.016;2022-08-14T15:09:37;2.78;;;2.58;;
21299;SDS011;10809;49.476;11.016;2022-08-14T15:12:07;3.03;;;2.47;;
21299;SDS011;10809;49.476;11.016;2022-08-14T15:14:37;2.25;;;2.13;;
21299;SDS011;10809;49.476;11.016;2022-08-14T15:17:11;2.38;;;2.20;;
21299;SDS011;10809;49.476;11.016;2022-08-14T15:19:45;2.28;;;2.10;;
21299;SDS011;10809;49.476;11.016;2022-08-14T15:22:17;2.35;;;2.25;;
21299;SDS011;10809;49.476;11.016;2022-08-14T15:24:50;2.70;;;2.50;;
21299;SDS011;10809;49.476;11.016;2022-08-14T15:27:21;2.67;;;2.47;;
21299;SDS011;10809;49.476;11.016;2022-08-14T15:29:52;2.08;;;1.95;;
21299;SDS011;10809;49.476;11.016;2022-08-14T15:32:23;2.50;;;2.30;;